sensor_id;sensor_type;location;lat;lon;timestamp;P1;durP1;ratioP1;P2;durP2;ratioP2
56667;SDS011;42542;48.360;10.958;2023-12-04T00:01:51;16.15;;;5.78;;
56667;SDS011;42542;48.360;10.958;2023-12-04T00:04:53;17.65;;;5.65;;
56667;SDS011;42542;48.360;10.958;2023-12-04T00:07:55;11.00;;;4.60;;
56667;SDS011;42542;48.360;10.958;2023-12-04T00:10:57;13.40;;;4.90;;
56667;SDS011;42542;48.360;10.958;2023-12-04T00:13:59;15.98;;;5.25;;
56667;SDS011;42542;48.360;10.958;2023-12-04T00:17:02;13.63;;;5.20;;
56667;SDS011;42542;48.360;10.958;2023-12-04T00:20:04;13.87;;;5.83;;
56667;SDS011;42542;48.360;10.958;2023-12-04T00:23:06;13.98;;;5.30;;
56667;SDS011;42542;48.360;10.958;2023-12-04T00:26:08;16.35;;;5.85;;
56667;SDS011;42542;48.360;10.958;2023-12-04T00:29:10;11.93;;;4.67;;
56667;SDS011;42542;48.360;10.958;2023-12-04T00:32:13;12.57;;;4.35;;
56667;SDS011;42542;48.360;10.958;2023-12-04T00:35:15;13.48;;;4.85;;
56667;SDS011;42542;48.360;10.958;2023-12-04T00:38:17;17.88;;;4.75;;
56667;SDS011;42542;48.360;10.958;2023-12-04T00:41:20;13.95;;;5.47;;
56667;SDS011;42542;48.360;10.958;2023-12-04T00:44:22;13.25;;;3.75;;
56667;SDS011;42542;48.360;10.958;2023-12-04T00:47:24;13.57;;;5.18;;
56667;SDS011;42542;48.360;10.958;2023-12-04T00:50:25;20.20;;;5.70;;
56667;SDS011;42542;48.360;10.958;2023-12-04T00:53:28;15.88;;;4.97;;
56667;SDS011;42542;48.360;10.958;2023-12-04T00:56:30;15.55;;;5.55;;
56667;SDS011;42542;48.360;10.958;2023-12-04T00:59:32;14.43;;;5.43;;
56667;SDS011;42542;48.360;10.958;2023-12-04T01:02:34;15.18;;;5.03;;
56667;SDS011;42542;48.360;10.958;2023-12-04T01:05:36;16.10;;;5.20;;
56667;SDS011;42542;48.360;10.958;2023-12-04T01:08:37;15.05;;;5.88;;
56667;SDS011;42542;48.360;10.958;2023-12-04T01:11:39;12.32;;;5.82;;
56667;SDS011;42542;48.360;10.958;2023-12-04T01:14:41;11.50;;;4.60;;
56667;SDS011;42542;48.360;10.958;2023-12-04T01:17:43;12.50;;;4.50;;
56667;SDS011;42542;48.360;10.958;2023-12-04T01:20:45;12.47;;;4.57;;
56667;SDS011;42542;48.360;10.958;2023-12-04T01:23:46;12.45;;;5.45;;
56667;SDS011;42542;48.360;10.958;2023-12-04T01:26:48;14.55;;;5.22;;
56667;SDS011;42542;48.360;10.958;2023-12-04T01:29:49;13.23;;;4.23;;
56667;SDS011;42542;48.360;10.958;2023-12-04T01:32:51;10.20;;;4.50;;
56667;SDS011;42542;48.360;10.958;2023-12-04T01:35:53;11.15;;;5.15;;
56667;SDS011;42542;48.360;10.958;2023-12-04T01:38:56;16.85;;;4.97;;
56667;SDS011;42542;48.360;10.958;2023-12-04T01:41:57;13.05;;;4.85;;
56667;SDS011;42542;48.360;10.958;2023-12-04T01:45:00;13.45;;;5.03;;
56667;SDS011;42542;48.360;10.958;2023-12-04T01:48:02;10.52;;;3.83;;
56667;SDS011;42542;48.360;10.958;2023-12-04T01:51:06;14.20;;;4.93;;
56667;SDS011;42542;48.360;10.958;2023-12-04T01:54:11;12.00;;;4.20;;
56667;SDS011;42542;48.360;10.958;2023-12-04T01:57:15;11.45;;;3.95;;
56667;SDS011;42542;48.360;10.958;2023-12-04T02:00:17;10.40;;;4.30;;
56667;SDS011;42542;48.360;10.958;2023-12-04T02:03:22;10.10;;;4.15;;
56667;SDS011;42542;48.360;10.958;2023-12-04T02:06:24;11.13;;;3.65;;
56667;SDS011;42542;48.360;10.958;2023-12-04T02:09:26;11.02;;;3.85;;
56667;SDS011;42542;48.360;10.958;2023-12-04T02:12:28;14.02;;;4.22;;
56667;SDS011;42542;48.360;10.958;2023-12-04T02:15:31;12.65;;;4.78;;
56667;SDS011;42542;48.360;10.958;2023-12-04T02:18:33;13.27;;;4.90;;
56667;SDS011;42542;48.360;10.958;2023-12-04T02:21:36;9.23;;;3.30;;
56667;SDS011;42542;48.360;10.958;2023-12-04T02:24:38;10.80;;;4.00;;
56667;SDS011;42542;48.360;10.958;2023-12-04T02:27:42;9.48;;;3.90;;
56667;SDS011;42542;48.360;10.958;2023-12-04T02:30:48;11.13;;;3.23;;
56667;SDS011;42542;48.360;10.958;2023-12-04T02:33:52;12.73;;;4.35;;
56667;SDS011;42542;48.360;10.958;2023-12-04T02:36:57;14.38;;;4.78;;
56667;SDS011;42542;48.360;10.958;2023-12-04T02:39:59;11.45;;;4.75;;
56667;SDS011;42542;48.360;10.958;2023-12-04T02:43:03;9.27;;;3.67;;
56667;SDS011;42542;48.360;10.958;2023-12-04T02:46:04;11.25;;;3.30;;
56667;SDS011;42542;48.360;10.958;2023-12-04T02:49:06;13.82;;;4.43;;
56667;SDS011;42542;48.360;10.958;2023-12-04T02:52:08;13.10;;;4.43;;
56667;SDS011;42542;48.360;10.958;2023-12-04T02:55:10;9.82;;;3.95;;
56667;SDS011;42542;48.360;10.958;2023-12-04T02:58:13;10.00;;;3.75;;
56667;SDS011;42542;48.360;10.958;2023-12-04T03:01:15;13.53;;;4.23;;
56667;SDS011;42542;48.360;10.958;2023-12-04T03:04:18;10.82;;;4.07;;
56667;SDS011;42542;48.360;10.958;2023-12-04T03:12:13;7.47;;;3.17;;
56667;SDS011;42542;48.360;10.958;2023-12-04T03:15:19;9.38;;;3.08;;
56667;SDS011;42542;48.360;10.958;2023-12-04T03:18:21;10.60;;;4.03;;
56667;SDS011;42542;48.360;10.958;2023-12-04T03:21:24;11.70;;;3.72;;
56667;SDS011;42542;48.360;10.958;2023-12-04T03:24:26;10.87;;;3.67;;
56667;SDS011;42542;48.360;10.958;2023-12-04T03:27:28;7.22;;;3.03;;
56667;SDS011;42542;48.360;10.958;2023-12-04T03:30:29;10.35;;;3.78;;
56667;SDS011;42542;48.360;10.958;2023-12-04T03:33:32;9.90;;;3.37;;
56667;SDS011;42542;48.360;10.958;2023-12-04T03:36:34;12.73;;;3.95;;
56667;SDS011;42542;48.360;10.958;2023-12-04T03:39:36;11.70;;;3.90;;
56667;SDS011;42542;48.360;10.958;2023-12-04T03:42:38;9.18;;;3.20;;
56667;SDS011;42542;48.360;10.958;2023-12-04T03:45:43;10.60;;;3.58;;
56667;SDS011;42542;48.360;10.958;2023-12-04T03:48:45;12.63;;;4.30;;
56667;SDS011;42542;48.360;10.958;2023-12-04T03:51:47;10.90;;;3.55;;
56667;SDS011;42542;48.360;10.958;2023-12-04T03:54:49;12.67;;;4.40;;
56667;SDS011;42542;48.360;10.958;2023-12-04T03:57:52;11.07;;;4.53;;
56667;SDS011;42542;48.360;10.958;2023-12-04T04:00:54;11.80;;;4.15;;
56667;SDS011;42542;48.360;10.958;2023-12-04T04:03:56;12.70;;;3.63;;
56667;SDS011;42542;48.360;10.958;2023-12-04T04:06:58;9.30;;;3.08;;
56667;SDS011;42542;48.360;10.958;2023-12-04T04:10:00;9.68;;;3.30;;
56667;SDS011;42542;48.360;10.958;2023-12-04T04:13:02;14.23;;;3.95;;
56667;SDS011;42542;48.360;10.958;2023-12-04T04:16:04;10.40;;;3.92;;
56667;SDS011;42542;48.360;10.958;2023-12-04T04:19:06;9.25;;;4.47;;
56667;SDS011;42542;48.360;10.958;2023-12-04T04:22:08;8.13;;;3.13;;
56667;SDS011;42542;48.360;10.958;2023-12-04T04:25:11;7.27;;;2.93;;
56667;SDS011;42542;48.360;10.958;2023-12-04T04:28:13;11.77;;;3.78;;
56667;SDS011;42542;48.360;10.958;2023-12-04T04:31:15;11.00;;;4.40;;
56667;SDS011;42542;48.360;10.958;2023-12-04T04:34:19;8.13;;;3.50;;
56667;SDS011;42542;48.360;10.958;2023-12-04T04:37:21;9.45;;;3.65;;
56667;SDS011;42542;48.360;10.958;2023-12-04T04:40:23;14.18;;;3.15;;
56667;SDS011;42542;48.360;10.958;2023-12-04T04:43:25;7.30;;;3.03;;
56667;SDS011;42542;48.360;10.958;2023-12-04T04:46:28;10.55;;;4.05;;
56667;SDS011;42542;48.360;10.958;2023-12-04T04:49:30;7.95;;;3.45;;
56667;SDS011;42542;48.360;10.958;2023-12-04T04:52:33;8.90;;;3.53;;
56667;SDS011;42542;48.360;10.958;2023-12-04T04:55:34;9.87;;;3.93;;
56667;SDS011;42542;48.360;10.958;2023-12-04T04:58:49;9.95;;;2.97;;
56667;SDS011;42542;48.360;10.958;2023-12-04T05:01:53;13.60;;;4.75;;
56667;SDS011;42542;48.360;10.958;2023-12-04T05:04:55;12.67;;;4.53;;
56667;SDS011;42542;48.360;10.958;2023-12-04T05:07:57;8.18;;;3.58;;
56667;SDS011;42542;48.360;10.958;2023-12-04T05:11:00;12.32;;;4.28;;
56667;SDS011;42542;48.360;10.958;2023-12-04T05:14:01;9.68;;;3.50;;
56667;SDS011;42542;48.360;10.958;2023-12-04T05:17:03;13.82;;;4.40;;
56667;SDS011;42542;48.360;10.958;2023-12-04T05:20:05;12.98;;;4.85;;
56667;SDS011;42542;48.360;10.958;2023-12-04T05:23:07;9.85;;;4.20;;
56667;SDS011;42542;48.360;10.958;2023-12-04T05:26:09;20.43;;;5.07;;
56667;SDS011;42542;48.360;10.958;2023-12-04T05:29:11;10.57;;;3.92;;
56667;SDS011;42542;48.360;10.958;2023-12-04T05:32:13;8.43;;;3.72;;
56667;SDS011;42542;48.360;10.958;2023-12-04T05:35:15;10.50;;;4.20;;
56667;SDS011;42542;48.360;10.958;2023-12-04T05:38:18;11.05;;;3.72;;
56667;SDS011;42542;48.360;10.958;2023-12-04T05:41:20;10.02;;;4.22;;
56667;SDS011;42542;48.360;10.958;2023-12-04T05:44:22;13.73;;;4.05;;
56667;SDS011;42542;48.360;10.958;2023-12-04T05:47:24;11.50;;;4.13;;
56667;SDS011;42542;48.360;10.958;2023-12-04T05:50:26;10.75;;;3.60;;
56667;SDS011;42542;48.360;10.958;2023-12-04T05:53:28;13.18;;;4.50;;
56667;SDS011;42542;48.360;10.958;2023-12-04T05:56:31;11.50;;;4.43;;
56667;SDS011;42542;48.360;10.958;2023-12-04T05:59:32;12.90;;;5.10;;
56667;SDS011;42542;48.360;10.958;2023-12-04T06:02:35;10.07;;;4.10;;
56667;SDS011;42542;48.360;10.958;2023-12-04T06:05:36;11.97;;;4.93;;
56667;SDS011;42542;48.360;10.958;2023-12-04T06:08:38;11.48;;;3.85;;
56667;SDS011;42542;48.360;10.958;2023-12-04T06:11:40;14.43;;;5.38;;
56667;SDS011;42542;48.360;10.958;2023-12-04T06:14:45;15.07;;;5.00;;
56667;SDS011;42542;48.360;10.958;2023-12-04T06:17:47;14.15;;;5.47;;
56667;SDS011;42542;48.360;10.958;2023-12-04T06:20:49;12.43;;;4.40;;
56667;SDS011;42542;48.360;10.958;2023-12-04T06:23:51;13.45;;;4.63;;
56667;SDS011;42542;48.360;10.958;2023-12-04T06:26:53;17.13;;;5.13;;
56667;SDS011;42542;48.360;10.958;2023-12-04T06:29:56;13.20;;;5.30;;
56667;SDS011;42542;48.360;10.958;2023-12-04T06:32:58;11.95;;;4.85;;
56667;SDS011;42542;48.360;10.958;2023-12-04T06:36:01;12.33;;;5.33;;
56667;SDS011;42542;48.360;10.958;2023-12-04T06:39:03;13.88;;;5.18;;
56667;SDS011;42542;48.360;10.958;2023-12-04T06:42:11;11.55;;;5.20;;
56667;SDS011;42542;48.360;10.958;2023-12-04T06:45:13;14.90;;;4.93;;
56667;SDS011;42542;48.360;10.958;2023-12-04T06:48:16;9.93;;;4.38;;
56667;SDS011;42542;48.360;10.958;2023-12-04T06:51:18;8.80;;;3.85;;
56667;SDS011;42542;48.360;10.958;2023-12-04T06:54:20;12.30;;;4.60;;
56667;SDS011;42542;48.360;10.958;2023-12-04T06:57:22;14.27;;;5.37;;
56667;SDS011;42542;48.360;10.958;2023-12-04T07:00:24;17.63;;;5.00;;
56667;SDS011;42542;48.360;10.958;2023-12-04T07:03:25;10.05;;;3.70;;
56667;SDS011;42542;48.360;10.958;2023-12-04T07:06:27;11.77;;;5.20;;
56667;SDS011;42542;48.360;10.958;2023-12-04T07:09:29;10.07;;;4.43;;
56667;SDS011;42542;48.360;10.958;2023-12-04T07:12:31;14.20;;;4.07;;
56667;SDS011;42542;48.360;10.958;2023-12-04T07:15:33;10.98;;;4.03;;
56667;SDS011;42542;48.360;10.958;2023-12-04T07:18:35;12.27;;;4.45;;
56667;SDS011;42542;48.360;10.958;2023-12-04T07:21:37;10.32;;;4.70;;
56667;SDS011;42542;48.360;10.958;2023-12-04T07:24:41;12.32;;;5.20;;
56667;SDS011;42542;48.360;10.958;2023-12-04T07:27:42;11.17;;;4.33;;
56667;SDS011;42542;48.360;10.958;2023-12-04T07:30:44;12.75;;;5.43;;
56667;SDS011;42542;48.360;10.958;2023-12-04T07:33:46;12.02;;;4.63;;
56667;SDS011;42542;48.360;10.958;2023-12-04T07:36:48;14.77;;;5.97;;
56667;SDS011;42542;48.360;10.958;2023-12-04T07:39:51;16.77;;;5.65;;
56667;SDS011;42542;48.360;10.958;2023-12-04T07:42:53;17.92;;;8.98;;
56667;SDS011;42542;48.360;10.958;2023-12-04T07:45:55;20.52;;;6.05;;
56667;SDS011;42542;48.360;10.958;2023-12-04T07:48:59;12.85;;;4.82;;
56667;SDS011;42542;48.360;10.958;2023-12-04T07:52:01;12.88;;;5.32;;
56667;SDS011;42542;48.360;10.958;2023-12-04T07:55:04;12.07;;;4.55;;
56667;SDS011;42542;48.360;10.958;2023-12-04T07:58:06;12.73;;;5.57;;
56667;SDS011;42542;48.360;10.958;2023-12-04T08:01:11;15.32;;;5.85;;
56667;SDS011;42542;48.360;10.958;2023-12-04T08:04:12;11.90;;;4.47;;
56667;SDS011;42542;48.360;10.958;2023-12-04T08:07:15;11.30;;;4.83;;
56667;SDS011;42542;48.360;10.958;2023-12-04T08:10:17;11.68;;;4.43;;
56667;SDS011;42542;48.360;10.958;2023-12-04T08:13:19;9.18;;;3.83;;
56667;SDS011;42542;48.360;10.958;2023-12-04T08:16:21;11.95;;;5.18;;
56667;SDS011;42542;48.360;10.958;2023-12-04T08:19:23;17.17;;;6.40;;
56667;SDS011;42542;48.360;10.958;2023-12-04T08:22:25;15.43;;;6.38;;
56667;SDS011;42542;48.360;10.958;2023-12-04T08:25:28;13.18;;;5.93;;
56667;SDS011;42542;48.360;10.958;2023-12-04T08:28:30;13.73;;;5.47;;
56667;SDS011;42542;48.360;10.958;2023-12-04T08:31:32;14.82;;;6.25;;
56667;SDS011;42542;48.360;10.958;2023-12-04T08:34:34;12.32;;;5.15;;
56667;SDS011;42542;48.360;10.958;2023-12-04T08:37:38;13.80;;;5.07;;
56667;SDS011;42542;48.360;10.958;2023-12-04T08:40:39;12.68;;;5.78;;
56667;SDS011;42542;48.360;10.958;2023-12-04T08:43:42;13.43;;;5.90;;
56667;SDS011;42542;48.360;10.958;2023-12-04T08:46:43;17.13;;;6.45;;
56667;SDS011;42542;48.360;10.958;2023-12-04T08:49:46;16.63;;;6.20;;
56667;SDS011;42542;48.360;10.958;2023-12-04T08:52:50;17.17;;;5.10;;
56667;SDS011;42542;48.360;10.958;2023-12-04T08:55:54;11.13;;;4.78;;
56667;SDS011;42542;48.360;10.958;2023-12-04T08:58:55;15.93;;;5.97;;
56667;SDS011;42542;48.360;10.958;2023-12-04T09:01:59;13.27;;;5.13;;
56667;SDS011;42542;48.360;10.958;2023-12-04T09:05:00;13.50;;;5.47;;
56667;SDS011;42542;48.360;10.958;2023-12-04T09:08:04;13.23;;;4.37;;
56667;SDS011;42542;48.360;10.958;2023-12-04T09:11:08;14.25;;;5.65;;
56667;SDS011;42542;48.360;10.958;2023-12-04T09:14:23;13.68;;;5.75;;
56667;SDS011;42542;48.360;10.958;2023-12-04T09:17:25;16.90;;;5.93;;
56667;SDS011;42542;48.360;10.958;2023-12-04T09:20:33;17.17;;;5.65;;
56667;SDS011;42542;48.360;10.958;2023-12-04T09:23:35;16.80;;;5.88;;
56667;SDS011;42542;48.360;10.958;2023-12-04T09:26:37;16.35;;;5.53;;
56667;SDS011;42542;48.360;10.958;2023-12-04T09:29:40;12.90;;;5.13;;
56667;SDS011;42542;48.360;10.958;2023-12-04T09:32:42;19.00;;;5.18;;
56667;SDS011;42542;48.360;10.958;2023-12-04T09:35:44;13.75;;;5.57;;
56667;SDS011;42542;48.360;10.958;2023-12-04T09:38:46;17.90;;;5.97;;
56667;SDS011;42542;48.360;10.958;2023-12-04T09:41:48;18.70;;;6.78;;
56667;SDS011;42542;48.360;10.958;2023-12-04T09:44:51;17.20;;;5.53;;
56667;SDS011;42542;48.360;10.958;2023-12-04T09:47:53;13.52;;;6.05;;
56667;SDS011;42542;48.360;10.958;2023-12-04T09:50:57;13.13;;;5.22;;
56667;SDS011;42542;48.360;10.958;2023-12-04T09:54:02;14.27;;;5.95;;
56667;SDS011;42542;48.360;10.958;2023-12-04T09:57:06;18.98;;;5.75;;
56667;SDS011;42542;48.360;10.958;2023-12-04T10:00:08;13.67;;;5.57;;
56667;SDS011;42542;48.360;10.958;2023-12-04T10:03:12;13.82;;;5.75;;
56667;SDS011;42542;48.360;10.958;2023-12-04T10:06:15;13.35;;;5.80;;
56667;SDS011;42542;48.360;10.958;2023-12-04T10:09:20;15.97;;;4.97;;
56667;SDS011;42542;48.360;10.958;2023-12-04T10:12:24;12.15;;;4.78;;
56667;SDS011;42542;48.360;10.958;2023-12-04T10:15:27;13.57;;;6.07;;
56667;SDS011;42542;48.360;10.958;2023-12-04T10:18:29;17.30;;;6.55;;
56667;SDS011;42542;48.360;10.958;2023-12-04T10:21:33;15.00;;;5.20;;
56667;SDS011;42542;48.360;10.958;2023-12-04T10:24:36;17.17;;;6.38;;
56667;SDS011;42542;48.360;10.958;2023-12-04T10:27:40;17.13;;;6.10;;
56667;SDS011;42542;48.360;10.958;2023-12-04T10:30:42;13.27;;;5.83;;
56667;SDS011;42542;48.360;10.958;2023-12-04T10:33:44;15.60;;;6.40;;
56667;SDS011;42542;48.360;10.958;2023-12-04T10:36:52;17.10;;;6.45;;
56667;SDS011;42542;48.360;10.958;2023-12-04T10:39:55;18.50;;;6.77;;
56667;SDS011;42542;48.360;10.958;2023-12-04T10:46:11;16.75;;;5.63;;
56667;SDS011;42542;48.360;10.958;2023-12-04T10:49:13;18.40;;;6.53;;
56667;SDS011;42542;48.360;10.958;2023-12-04T10:52:16;17.45;;;6.25;;
56667;SDS011;42542;48.360;10.958;2023-12-04T10:55:20;17.80;;;6.80;;
56667;SDS011;42542;48.360;10.958;2023-12-04T10:58:22;20.13;;;7.28;;
56667;SDS011;42542;48.360;10.958;2023-12-04T11:01:27;18.57;;;6.63;;
56667;SDS011;42542;48.360;10.958;2023-12-04T11:04:33;17.52;;;7.15;;
56667;SDS011;42542;48.360;10.958;2023-12-04T11:07:37;22.95;;;8.63;;
56667;SDS011;42542;48.360;10.958;2023-12-04T11:11:08;15.87;;;6.17;;
56667;SDS011;42542;48.360;10.958;2023-12-04T11:14:14;17.95;;;7.10;;
56667;SDS011;42542;48.360;10.958;2023-12-04T11:17:22;12.85;;;5.53;;
56667;SDS011;42542;48.360;10.958;2023-12-04T11:20:27;14.85;;;6.18;;
56667;SDS011;42542;48.360;10.958;2023-12-04T11:23:33;22.25;;;6.85;;
56667;SDS011;42542;48.360;10.958;2023-12-04T11:26:36;17.23;;;6.43;;
56667;SDS011;42542;48.360;10.958;2023-12-04T11:29:38;17.83;;;6.55;;
56667;SDS011;42542;48.360;10.958;2023-12-04T11:32:46;17.30;;;6.10;;
56667;SDS011;42542;48.360;10.958;2023-12-04T11:35:50;13.95;;;5.53;;
56667;SDS011;42542;48.360;10.958;2023-12-04T11:38:52;15.13;;;5.80;;
56667;SDS011;42542;48.360;10.958;2023-12-04T11:41:54;18.27;;;6.00;;
56667;SDS011;42542;48.360;10.958;2023-12-04T11:44:56;18.90;;;7.78;;
56667;SDS011;42542;48.360;10.958;2023-12-04T11:48:02;16.70;;;7.07;;
56667;SDS011;42542;48.360;10.958;2023-12-04T11:51:05;20.33;;;7.78;;
56667;SDS011;42542;48.360;10.958;2023-12-04T11:54:09;18.10;;;6.40;;
56667;SDS011;42542;48.360;10.958;2023-12-04T12:03:20;18.13;;;6.97;;
56667;SDS011;42542;48.360;10.958;2023-12-04T12:06:24;18.00;;;7.10;;
56667;SDS011;42542;48.360;10.958;2023-12-04T12:09:26;18.42;;;6.72;;
56667;SDS011;42542;48.360;10.958;2023-12-04T12:12:29;18.53;;;6.97;;
56667;SDS011;42542;48.360;10.958;2023-12-04T12:15:33;16.50;;;7.78;;
56667;SDS011;42542;48.360;10.958;2023-12-04T12:18:35;17.67;;;7.55;;
56667;SDS011;42542;48.360;10.958;2023-12-04T12:21:38;16.80;;;7.00;;
56667;SDS011;42542;48.360;10.958;2023-12-04T12:24:40;17.25;;;7.28;;
56667;SDS011;42542;48.360;10.958;2023-12-04T12:27:42;22.40;;;7.95;;
56667;SDS011;42542;48.360;10.958;2023-12-04T12:30:45;21.80;;;7.78;;
56667;SDS011;42542;48.360;10.958;2023-12-04T12:33:47;18.30;;;6.97;;
56667;SDS011;42542;48.360;10.958;2023-12-04T12:36:49;22.98;;;7.50;;
56667;SDS011;42542;48.360;10.958;2023-12-04T12:39:52;17.63;;;6.97;;
56667;SDS011;42542;48.360;10.958;2023-12-04T12:43:02;19.77;;;7.03;;
56667;SDS011;42542;48.360;10.958;2023-12-04T12:46:08;17.80;;;7.68;;
56667;SDS011;42542;48.360;10.958;2023-12-04T12:49:13;19.88;;;7.38;;
56667;SDS011;42542;48.360;10.958;2023-12-04T12:52:19;21.65;;;8.52;;
56667;SDS011;42542;48.360;10.958;2023-12-04T12:55:24;17.35;;;7.35;;
56667;SDS011;42542;48.360;10.958;2023-12-04T12:58:27;17.42;;;7.55;;
56667;SDS011;42542;48.360;10.958;2023-12-04T13:01:32;19.27;;;7.65;;
56667;SDS011;42542;48.360;10.958;2023-12-04T13:04:35;26.30;;;9.43;;
56667;SDS011;42542;48.360;10.958;2023-12-04T13:07:37;19.30;;;7.80;;
56667;SDS011;42542;48.360;10.958;2023-12-04T13:10:40;19.40;;;8.00;;
56667;SDS011;42542;48.360;10.958;2023-12-04T13:13:44;22.77;;;8.87;;
56667;SDS011;42542;48.360;10.958;2023-12-04T13:16:45;20.42;;;8.18;;
56667;SDS011;42542;48.360;10.958;2023-12-04T13:19:47;25.65;;;8.13;;
56667;SDS011;42542;48.360;10.958;2023-12-04T13:22:49;24.17;;;9.77;;
56667;SDS011;42542;48.360;10.958;2023-12-04T13:25:52;19.92;;;7.78;;
56667;SDS011;42542;48.360;10.958;2023-12-04T13:28:56;25.17;;;8.80;;
56667;SDS011;42542;48.360;10.958;2023-12-04T13:31:57;18.30;;;7.60;;
56667;SDS011;42542;48.360;10.958;2023-12-04T13:35:00;19.97;;;7.87;;
56667;SDS011;42542;48.360;10.958;2023-12-04T13:38:04;19.88;;;7.88;;
56667;SDS011;42542;48.360;10.958;2023-12-04T13:41:22;22.02;;;8.77;;
56667;SDS011;42542;48.360;10.958;2023-12-04T13:44:42;17.37;;;7.57;;
56667;SDS011;42542;48.360;10.958;2023-12-04T13:47:44;19.13;;;7.10;;
56667;SDS011;42542;48.360;10.958;2023-12-04T13:50:46;18.83;;;8.20;;
56667;SDS011;42542;48.360;10.958;2023-12-04T13:53:48;19.88;;;8.45;;
56667;SDS011;42542;48.360;10.958;2023-12-04T13:56:52;19.50;;;7.47;;
56667;SDS011;42542;48.360;10.958;2023-12-04T13:59:58;22.30;;;9.00;;
56667;SDS011;42542;48.360;10.958;2023-12-04T14:03:02;22.15;;;8.25;;
56667;SDS011;42542;48.360;10.958;2023-12-04T14:06:09;21.50;;;7.60;;
56667;SDS011;42542;48.360;10.958;2023-12-04T14:09:13;17.42;;;7.90;;
56667;SDS011;42542;48.360;10.958;2023-12-04T14:12:18;21.67;;;8.10;;
56667;SDS011;42542;48.360;10.958;2023-12-04T14:15:20;15.93;;;6.90;;
56667;SDS011;42542;48.360;10.958;2023-12-04T14:18:22;17.70;;;7.53;;
56667;SDS011;42542;48.360;10.958;2023-12-04T14:21:24;19.27;;;7.40;;
56667;SDS011;42542;48.360;10.958;2023-12-04T14:24:26;19.48;;;7.80;;
56667;SDS011;42542;48.360;10.958;2023-12-04T14:27:28;22.75;;;8.45;;
56667;SDS011;42542;48.360;10.958;2023-12-04T14:30:29;19.30;;;8.38;;
56667;SDS011;42542;48.360;10.958;2023-12-04T14:33:32;20.50;;;8.77;;
56667;SDS011;42542;48.360;10.958;2023-12-04T14:36:34;27.90;;;9.47;;
56667;SDS011;42542;48.360;10.958;2023-12-04T14:39:36;21.15;;;8.95;;
56667;SDS011;42542;48.360;10.958;2023-12-04T14:42:37;16.83;;;7.53;;
56667;SDS011;42542;48.360;10.958;2023-12-04T14:45:39;19.50;;;8.47;;
56667;SDS011;42542;48.360;10.958;2023-12-04T14:48:41;23.10;;;8.85;;
56667;SDS011;42542;48.360;10.958;2023-12-04T14:51:43;28.38;;;10.85;;
56667;SDS011;42542;48.360;10.958;2023-12-04T14:54:49;24.10;;;9.98;;
56667;SDS011;42542;48.360;10.958;2023-12-04T14:58:09;23.13;;;8.75;;
56667;SDS011;42542;48.360;10.958;2023-12-04T15:01:40;20.02;;;7.90;;
56667;SDS011;42542;48.360;10.958;2023-12-04T15:05:02;20.92;;;8.82;;
56667;SDS011;42542;48.360;10.958;2023-12-04T15:08:10;18.40;;;7.23;;
56667;SDS011;42542;48.360;10.958;2023-12-04T15:11:25;17.80;;;7.78;;
56667;SDS011;42542;48.360;10.958;2023-12-04T15:15:05;24.15;;;7.43;;
56667;SDS011;42542;48.360;10.958;2023-12-04T15:18:28;15.40;;;6.03;;
56667;SDS011;42542;48.360;10.958;2023-12-04T15:21:45;17.63;;;6.68;;
56667;SDS011;42542;48.360;10.958;2023-12-04T15:24:47;17.92;;;7.22;;
56667;SDS011;42542;48.360;10.958;2023-12-04T15:27:48;14.80;;;6.38;;
56667;SDS011;42542;48.360;10.958;2023-12-04T15:30:51;18.85;;;8.25;;
56667;SDS011;42542;48.360;10.958;2023-12-04T15:33:55;20.25;;;7.72;;
56667;SDS011;42542;48.360;10.958;2023-12-04T15:36:57;21.23;;;7.32;;
56667;SDS011;42542;48.360;10.958;2023-12-04T15:40:00;14.33;;;6.53;;
56667;SDS011;42542;48.360;10.958;2023-12-04T15:43:03;19.70;;;9.05;;
56667;SDS011;42542;48.360;10.958;2023-12-04T15:46:05;23.50;;;7.93;;
56667;SDS011;42542;48.360;10.958;2023-12-04T15:49:07;15.87;;;6.57;;
56667;SDS011;42542;48.360;10.958;2023-12-04T15:52:09;18.25;;;7.13;;
56667;SDS011;42542;48.360;10.958;2023-12-04T15:55:11;17.55;;;7.60;;
56667;SDS011;42542;48.360;10.958;2023-12-04T15:58:13;21.73;;;8.23;;
56667;SDS011;42542;48.360;10.958;2023-12-04T16:01:15;15.65;;;6.65;;
56667;SDS011;42542;48.360;10.958;2023-12-04T16:04:17;19.00;;;6.75;;
56667;SDS011;42542;48.360;10.958;2023-12-04T16:07:20;16.73;;;7.18;;
56667;SDS011;42542;48.360;10.958;2023-12-04T16:10:22;17.83;;;6.90;;
56667;SDS011;42542;48.360;10.958;2023-12-04T16:13:24;23.13;;;7.32;;
56667;SDS011;42542;48.360;10.958;2023-12-04T16:16:26;20.42;;;6.72;;
56667;SDS011;42542;48.360;10.958;2023-12-04T16:19:27;17.03;;;5.93;;
56667;SDS011;42542;48.360;10.958;2023-12-04T16:22:31;19.60;;;6.93;;
56667;SDS011;42542;48.360;10.958;2023-12-04T16:25:33;16.55;;;6.53;;
56667;SDS011;42542;48.360;10.958;2023-12-04T16:28:35;17.75;;;7.28;;
56667;SDS011;42542;48.360;10.958;2023-12-04T16:31:37;18.92;;;7.88;;
56667;SDS011;42542;48.360;10.958;2023-12-04T16:34:41;21.88;;;8.10;;
56667;SDS011;42542;48.360;10.958;2023-12-04T16:37:43;21.27;;;9.25;;
56667;SDS011;42542;48.360;10.958;2023-12-04T16:40:45;25.93;;;11.00;;
56667;SDS011;42542;48.360;10.958;2023-12-04T16:43:47;27.77;;;10.73;;
56667;SDS011;42542;48.360;10.958;2023-12-04T16:46:49;26.67;;;11.27;;
56667;SDS011;42542;48.360;10.958;2023-12-04T16:49:57;24.13;;;10.57;;
56667;SDS011;42542;48.360;10.958;2023-12-04T16:52:59;24.08;;;9.32;;
56667;SDS011;42542;48.360;10.958;2023-12-04T16:56:01;19.35;;;8.82;;
56667;SDS011;42542;48.360;10.958;2023-12-04T16:59:03;26.35;;;10.68;;
56667;SDS011;42542;48.360;10.958;2023-12-04T17:02:05;21.00;;;9.43;;
56667;SDS011;42542;48.360;10.958;2023-12-04T17:05:07;23.70;;;8.50;;
56667;SDS011;42542;48.360;10.958;2023-12-04T17:08:10;24.25;;;8.48;;
56667;SDS011;42542;48.360;10.958;2023-12-04T17:11:13;16.53;;;7.53;;
56667;SDS011;42542;48.360;10.958;2023-12-04T17:14:15;22.65;;;9.15;;
56667;SDS011;42542;48.360;10.958;2023-12-04T17:17:16;21.50;;;7.38;;
56667;SDS011;42542;48.360;10.958;2023-12-04T17:20:18;21.20;;;8.30;;
56667;SDS011;42542;48.360;10.958;2023-12-04T17:23:21;26.55;;;9.70;;
56667;SDS011;42542;48.360;10.958;2023-12-04T17:26:22;30.42;;;12.38;;
56667;SDS011;42542;48.360;10.958;2023-12-04T17:29:25;32.78;;;12.65;;
56667;SDS011;42542;48.360;10.958;2023-12-04T17:32:29;30.65;;;12.00;;
56667;SDS011;42542;48.360;10.958;2023-12-04T17:35:31;25.60;;;10.30;;
56667;SDS011;42542;48.360;10.958;2023-12-04T17:38:33;21.42;;;8.73;;
56667;SDS011;42542;48.360;10.958;2023-12-04T17:41:35;19.17;;;7.77;;
56667;SDS011;42542;48.360;10.958;2023-12-04T17:44:37;44.40;;;16.88;;
56667;SDS011;42542;48.360;10.958;2023-12-04T17:47:40;29.23;;;12.07;;
56667;SDS011;42542;48.360;10.958;2023-12-04T17:50:42;28.80;;;10.10;;
56667;SDS011;42542;48.360;10.958;2023-12-04T17:53:44;24.90;;;9.63;;
56667;SDS011;42542;48.360;10.958;2023-12-04T17:56:45;28.17;;;11.05;;
56667;SDS011;42542;48.360;10.958;2023-12-04T17:59:47;29.38;;;10.70;;
56667;SDS011;42542;48.360;10.958;2023-12-04T18:02:48;32.90;;;11.65;;
56667;SDS011;42542;48.360;10.958;2023-12-04T18:05:50;32.28;;;11.48;;